Time;durP1;ratioP1;P1;durP2;ratioP2;P2;SDS_P1;SDS_P2;PMS_P1;PMS_P2;Temp;Humidity;BMP_temperature;BMP_pressure;BME280_temperature;BME280_humidity;BME280_pressure;Samples;Min_cycle;Max_cycle;Signal;HPM_P1;HPM_P2
2021/01/30 00:00:44;;;;;;;11.07;4.70;;;6.50;91.80;;;;;;5051575;28;20032;-85
2021/01/30 00:03:11;;;;;;;11.60;4.13;;;6.50;91.70;;;;;;5052037;28;20033;-85
2021/01/30 00:05:40;;;;;;;12.43;4.50;;;6.50;91.80;;;;;;5053624;28;20021;-86
2021/01/30 00:08:08;;;;;;;8.57;3.75;;;6.50;91.60;;;;;;5053598;28;20036;-85
2021/01/30 00:10:34;;;;;;;10.40;5.53;;;6.40;91.70;;;;;;5053198;28;20112;-85
2021/01/30 00:13:00;;;;;;;9.53;5.30;;;6.50;92.10;;;;;;5052276;28;20021;-85
2021/01/30 00:15:27;;;;;;;11.10;6.90;;;6.40;91.90;;;;;;5051910;28;20540;-85
2021/01/30 00:17:54;;;;;;;19.73;9.87;;;6.50;92.20;;;;;;5051959;28;20086;-86
2021/01/30 00:20:23;;;;;;;21.87;11.43;;;6.50;92.00;;;;;;5051218;28;20032;-85
2021/01/30 00:22:53;;;;;;;17.60;11.52;;;6.40;91.50;;;;;;5052917;28;20028;-85
2021/01/30 00:25:22;;;;;;;21.33;12.47;;;6.30;91.70;;;;;;5051877;28;20474;-85
2021/01/30 00:27:47;;;;;;;23.90;12.52;;;6.30;91.40;;;;;;5052966;28;20482;-85
2021/01/30 00:30:15;;;;;;;27.90;14.00;;;6.30;91.60;;;;;;5052343;28;20033;-85
2021/01/30 00:32:41;;;;;;;25.23;14.57;;;6.00;91.80;;;;;;5052771;28;20061;-85
2021/01/30 00:35:08;;;;;;;33.60;14.93;;;5.80;92.30;;;;;;5053052;28;20060;-85
2021/01/30 00:37:34;;;;;;;24.43;13.27;;;5.70;92.90;;;;;;5052676;28;20111;-85
2021/01/30 00:40:00;;;;;;;28.27;12.70;;;5.60;92.60;;;;;;5050918;28;20120;-85
2021/01/30 00:42:26;;;;;;;26.30;12.57;;;5.50;92.60;;;;;;5051430;28;20379;-85
2021/01/30 00:44:53;;;;;;;25.17;13.63;;;5.40;92.30;;;;;;5051366;28;20136;-85
2021/01/30 00:47:19;;;;;;;25.77;13.47;;;5.30;92.70;;;;;;5052905;28;20063;-86
2021/01/30 00:49:45;;;;;;;25.67;12.30;;;5.30;92.50;;;;;;5052229;28;20033;-85
2021/01/30 00:52:14;;;;;;;30.50;13.90;;;5.10;93.00;;;;;;5051244;28;20083;-85
2021/01/30 00:54:40;;;;;;;29.00;13.57;;;5.00;92.80;;;;;;5051529;28;20029;-85
2021/01/30 00:57:06;;;;;;;24.77;12.90;;;4.90;92.70;;;;;;5052499;28;20127;-85
2021/01/30 00:59:32;;;;;;;21.30;11.63;;;4.90;93.00;;;;;;5050675;28;20385;-85
2021/01/30 01:01:58;;;;;;;28.77;14.43;;;4.70;92.50;;;;;;5052717;28;20071;-85
2021/01/30 01:04:24;;;;;;;27.93;13.17;;;4.60;92.20;;;;;;5051317;28;20492;-85
2021/01/30 01:06:50;;;;;;;28.67;13.23;;;4.40;92.80;;;;;;5052499;28;20035;-85
2021/01/30 01:09:17;;;;;;;27.43;13.73;;;4.50;93.10;;;;;;5050576;28;20053;-85
2021/01/30 01:11:44;;;;;;;25.93;12.90;;;4.50;93.50;;;;;;5050841;28;20040;-85
2021/01/30 01:14:10;;;;;;;18.63;10.93;;;4.50;93.20;;;;;;5052293;28;20059;-85
2021/01/30 01:16:36;;;;;;;17.87;10.30;;;4.60;92.10;;;;;;5051100;28;20033;-85
2021/01/30 01:19:03;;;;;;;23.93;10.83;;;4.60;92.40;;;;;;5050296;28;20120;-86
2021/01/30 01:21:28;;;;;;;22.00;10.60;;;4.70;92.00;;;;;;5052699;28;20043;-85
2021/01/30 01:23:54;;;;;;;17.90;10.37;;;4.70;91.60;;;;;;5050732;28;20550;-85
2021/01/30 01:26:20;;;;;;;24.17;11.50;;;4.70;91.60;;;;;;5050834;28;20518;-85
2021/01/30 01:28:46;;;;;;;29.23;11.40;;;4.80;91.20;;;;;;5050598;28;20473;-85
2021/01/30 01:31:13;;;;;;;21.07;11.50;;;4.80;91.10;;;;;;5050250;28;20472;-85
2021/01/30 01:33:39;;;;;;;22.20;10.83;;;4.60;91.30;;;;;;5051986;28;20025;-85
2021/01/30 01:36:05;;;;;;;21.40;10.73;;;4.50;91.00;;;;;;5051894;28;20060;-85
2021/01/30 01:38:31;;;;;;;20.77;11.13;;;4.50;91.30;;;;;;5050542;28;20056;-85
2021/01/30 01:40:56;;;;;;;17.30;10.43;;;4.50;91.10;;;;;;5051310;28;20025;-84
2021/01/30 01:43:25;;;;;;;17.50;10.30;;;4.40;90.80;;;;;;5050585;28;20021;-85
2021/01/30 01:46:22;;;;;;;18.02;9.90;;;4.40;90.90;;;;;;5051888;28;20017;-85
2021/01/30 01:48:59;;;;;;;19.23;10.07;;;4.30;91.00;;;;;;5051590;28;20017;-85
2021/01/30 01:51:37;;;;;;;20.13;10.27;;;4.40;91.00;;;;;;5050401;28;20079;-85
2021/01/30 01:54:08;;;;;;;16.83;9.50;;;4.50;91.20;;;;;;5050546;28;20029;-85
2021/01/30 01:56:37;;;;;;;14.70;8.07;;;4.30;90.50;;;;;;5051745;28;20104;-85
2021/01/30 01:59:14;;;;;;;15.87;8.07;;;4.20;89.90;;;;;;5050025;28;20108;-85
2021/01/30 02:01:41;;;;;;;20.33;10.70;;;4.20;90.50;;;;;;5050336;28;20092;-85
2021/01/30 02:04:13;;;;;;;16.53;9.10;;;4.30;90.40;;;;;;5051664;28;20036;-85
2021/01/30 02:06:41;;;;;;;15.37;9.37;;;4.50;90.00;;;;;;5051578;28;20048;-85
2021/01/30 02:09:11;;;;;;;20.03;9.07;;;4.50;90.30;;;;;;5051393;28;20017;-85
2021/01/30 02:11:37;;;;;;;14.20;8.70;;;4.40;90.10;;;;;;5050382;28;20025;-85
2021/01/30 02:14:06;;;;;;;13.43;8.90;;;4.50;90.00;;;;;;5051447;28;20036;-85
2021/01/30 02:16:39;;;;;;;13.98;9.75;;;4.60;89.20;;;;;;5051677;28;20086;-85
2021/01/30 02:19:46;;;;;;;14.83;9.47;;;4.20;87.70;;;;;;5053145;28;20086;-85
2021/01/30 02:22:23;;;;;;;16.50;10.23;;;4.20;89.00;;;;;;5055385;28;20028;-85
2021/01/30 02:25:11;;;;;;;18.37;10.80;;;4.30;89.70;;;;;;5055392;28;20477;-85
2021/01/30 02:27:55;;;;;;;17.27;11.03;;;4.30;88.90;;;;;;5055394;28;20394;-85
2021/01/30 02:30:59;;;;;;;16.90;11.13;;;4.30;89.30;;;;;;5053338;28;20021;-85
2021/01/30 02:33:24;;;;;;;16.47;11.07;;;4.20;90.00;;;;;;5070567;28;20355;-85
2021/01/30 02:35:55;;;;;;;17.93;11.47;;;4.00;90.10;;;;;;5054011;28;20021;-85
2021/01/30 02:38:26;;;;;;;16.07;11.07;;;4.00;90.20;;;;;;5055157;28;20029;-85
2021/01/30 02:40:56;;;;;;;17.60;10.77;;;4.00;90.40;;;;;;5054652;28;20042;-85
2021/01/30 02:43:28;;;;;;;16.50;11.00;;;4.20;90.20;;;;;;5053664;28;20044;-85
2021/01/30 02:46:04;;;;;;;18.13;11.60;;;4.30;90.30;;;;;;5055030;28;20051;-85
2021/01/30 02:48:37;;;;;;;17.37;11.30;;;4.30;90.20;;;;;;5053627;28;20049;-85
2021/01/30 02:51:06;;;;;;;21.87;13.03;;;4.30;90.00;;;;;;5053066;28;20029;-85
2021/01/30 02:53:36;;;;;;;21.70;13.35;;;4.00;90.00;;;;;;5053659;28;20031;-85
2021/01/30 02:56:04;;;;;;;24.33;14.10;;;4.20;90.50;;;;;;5053517;28;20394;-85
2021/01/30 02:58:40;;;;;;;23.33;13.97;;;4.00;90.10;;;;;;5054693;28;20390;-85
2021/01/30 03:01:06;;;;;;;29.67;16.83;;;3.90;90.30;;;;;;5052914;28;20636;-85
2021/01/30 03:03:33;;;;;;;28.60;17.57;;;3.80;90.70;;;;;;5053420;28;20025;-85
2021/01/30 03:06:12;;;;;;;28.47;16.63;;;3.50;91.50;;;;;;5054504;28;20055;-85
2021/01/30 03:08:44;;;;;;;28.60;16.03;;;3.60;91.60;;;;;;5054547;28;20032;-85
2021/01/30 03:11:14;;;;;;;28.37;17.03;;;3.70;91.50;;;;;;5091145;22;20044;-81
2021/01/30 03:13:57;;;;;;;25.67;15.57;;;3.70;92.00;;;;;;5075249;28;20024;-80
2021/01/30 03:16:28;;;;;;;23.97;15.33;;;3.90;90.90;;;;;;5090534;28;20090;-81
2021/01/30 03:18:59;;;;;;;23.97;15.23;;;3.90;90.90;;;;;;5074629;28;20161;-81
2021/01/30 03:21:26;;;;;;;23.10;15.30;;;3.90;90.90;;;;;;5075139;28;20096;-81
2021/01/30 03:23:54;;;;;;;24.57;15.40;;;3.90;90.40;;;;;;5075024;28;20362;-81
2021/01/30 03:26:23;;;;;;;25.43;15.07;;;3.90;90.20;;;;;;5090429;28;20031;-81
2021/01/30 03:28:50;;;;;;;22.80;15.27;;;3.90;90.30;;;;;;5074924;28;20021;-82
2021/01/30 03:31:16;;;;;;;24.33;15.87;;;4.00;90.10;;;;;;5073830;28;20390;-82
2021/01/30 03:33:42;;;;;;;25.57;16.03;;;3.60;90.20;;;;;;5074142;28;20029;-81
2021/01/30 03:36:08;;;;;;;23.70;15.53;;;3.40;90.50;;;;;;5075023;28;20047;-82
2021/01/30 03:38:34;;;;;;;26.57;16.03;;;3.70;90.60;;;;;;5090669;28;20024;-82
2021/01/30 03:41:00;;;;;;;24.70;15.87;;;3.80;90.50;;;;;;5073837;28;20507;-81
2021/01/30 03:43:26;;;;;;;24.90;15.83;;;3.90;89.60;;;;;;5073706;28;20028;-82
2021/01/30 03:45:52;;;;;;;25.00;15.33;;;3.80;89.10;;;;;;5073491;28;20099;-81
2021/01/30 03:48:17;;;;;;;23.47;14.47;;;3.70;89.40;;;;;;5074892;28;20550;-81
2021/01/30 03:50:43;;;;;;;23.30;14.87;;;3.70;90.20;;;;;;5074069;28;20028;-81
2021/01/30 03:53:09;;;;;;;24.23;15.43;;;3.80;89.70;;;;;;5074545;28;20053;-81
2021/01/30 03:55:36;;;;;;;21.83;14.60;;;3.90;89.90;;;;;;5073357;28;20032;-81
2021/01/30 03:58:02;;;;;;;23.97;15.20;;;4.00;88.80;;;;;;5074455;28;20033;-81
2021/01/30 04:00:27;;;;;;;21.10;13.77;;;4.00;88.50;;;;;;5072702;28;20594;-81
2021/01/30 04:02:53;;;;;;;19.47;13.83;;;4.10;86.30;;;;;;5074259;28;20028;-81
2021/01/30 04:05:25;;;;;;;17.43;12.80;;;4.10;86.60;;;;;;5073101;28;20107;-81
2021/01/30 04:07:53;;;;;;;18.53;13.50;;;3.90;85.20;;;;;;5074587;28;20032;-81
2021/01/30 04:10:22;;;;;;;20.40;12.73;;;4.00;86.50;;;;;;5073946;28;20447;-81
2021/01/30 04:12:48;;;;;;;18.27;13.48;;;4.00;86.20;;;;;;5090115;28;20385;-81
2021/01/30 04:15:16;;;;;;;17.37;12.93;;;3.90;85.70;;;;;;5074468;28;20032;-81
2021/01/30 04:17:42;;;;;;;17.13;12.05;;;3.80;85.60;;;;;;5072675;28;20025;-81
2021/01/30 04:20:09;;;;;;;18.70;12.97;;;3.80;85.30;;;;;;5072189;28;20427;-81
2021/01/30 04:22:34;;;;;;;17.57;12.67;;;3.90;86.30;;;;;;5074056;28;20021;-81
2021/01/30 04:25:00;;;;;;;19.23;12.73;;;3.80;85.70;;;;;;5073996;28;20024;-81
2021/01/30 04:27:26;;;;;;;18.97;13.43;;;3.90;85.70;;;;;;5073808;28;20029;-81
2021/01/30 04:29:51;;;;;;;18.97;12.83;;;3.90;86.20;;;;;;5073071;28;20035;-81
2021/01/30 04:32:17;;;;;;;25.90;16.77;;;3.90;85.30;;;;;;5072171;28;20020;-81
2021/01/30 04:34:42;;;;;;;19.47;13.80;;;3.80;86.00;;;;;;5073657;28;20507;-81
2021/01/30 04:37:08;;;;;;;19.97;13.97;;;3.80;86.00;;;;;;5073817;28;20073;-81
2021/01/30 04:39:33;;;;;;;21.23;13.97;;;3.70;85.70;;;;;;5071610;28;20469;-81
2021/01/30 04:42:13;;;;;;;22.53;15.77;;;3.70;85.10;;;;;;5073126;28;20019;-81
2021/01/30 04:44:55;;;;;;;20.57;13.77;;;3.50;84.40;;;;;;5072145;28;20017;-81
2021/01/30 04:47:48;;;;;;;22.87;15.70;;;3.60;86.40;;;;;;5073529;28;20024;-81
2021/01/30 04:50:39;;;;;;;21.73;14.17;;;3.60;86.60;;;;;;5072811;28;20032;-81
2021/01/30 04:53:14;;;;;;;21.00;14.20;;;3.70;85.10;;;;;;5089243;28;20393;-81
2021/01/30 04:55:55;;;;;;;18.97;13.37;;;3.70;84.80;;;;;;5071848;28;20031;-81
2021/01/30 04:59:01;;;;;;;23.10;14.83;;;3.70;84.50;;;;;;5073302;28;20050;-81
2021/01/30 05:01:45;;;;;;;23.20;14.80;;;3.50;84.90;;;;;;5071888;28;20093;-81
2021/01/30 05:04:20;;;;;;;21.60;14.80;;;3.70;84.10;;;;;;5073025;28;20059;-81
2021/01/30 05:07:25;;;;;;;19.90;15.03;;;3.70;85.20;;;;;;5088760;28;20029;-81
2021/01/30 05:10:00;;;;;;;22.33;14.77;;;3.70;85.40;;;;;;5088133;28;20033;-81
2021/01/30 05:13:02;;;;;;;21.17;14.83;;;3.70;85.10;;;;;;5071868;28;20565;-81
2021/01/30 05:15:29;;;;;;;19.90;14.30;;;3.70;83.50;;;;;;5071526;28;20028;-82
2021/01/30 05:18:16;;;;;;;21.23;14.23;;;3.60;83.80;;;;;;5073325;28;20033;-81
2021/01/30 05:20:51;;;;;;;20.77;13.93;;;3.60;84.20;;;;;;5072510;28;20077;-81
2021/01/30 05:23:17;;;;;;;20.17;14.20;;;3.70;83.80;;;;;;5088578;28;20020;-80
2021/01/30 05:25:45;;;;;;;20.40;14.37;;;3.70;83.70;;;;;;5073042;28;20090;-81
2021/01/30 05:28:37;;;;;;;19.43;13.83;;;3.70;83.80;;;;;;5073164;28;20473;-81
2021/01/30 05:31:27;;;;;;;20.30;14.83;;;3.80;83.70;;;;;;5071659;28;20365;-81
2021/01/30 05:33:59;;;;;;;19.00;13.33;;;3.80;83.80;;;;;;5088499;28;20035;-81
2021/01/30 05:36:32;;;;;;;19.10;14.23;;;3.60;82.30;;;;;;5073002;28;20366;-81
2021/01/30 05:39:08;;;;;;;16.87;12.63;;;3.70;84.20;;;;;;5070969;28;20028;-81
2021/01/30 05:41:55;;;;;;;19.00;13.03;;;3.80;82.00;;;;;;5088416;28;20143;-81
2021/01/30 05:44:49;;;;;;;17.63;12.63;;;3.80;82.50;;;;;;5073028;28;20050;-81
2021/01/30 05:47:19;;;;;;;17.13;12.90;;;3.80;82.80;;;;;;5072873;28;20031;-81
2021/01/30 05:49:54;;;;;;;;;;;3.80;82.00;;;;;;5087739;28;20029;-81
2021/01/30 05:52:26;;;;;;;17.83;12.23;;;3.70;81.60;;;;;;5071342;28;19916;-80
2021/01/30 05:54:51;;;;;;;16.47;12.00;;;3.70;81.10;;;;;;5076769;28;20028;-81
2021/01/30 05:57:18;;;;;;;16.70;11.90;;;3.70;81.50;;;;;;5076558;28;20502;-81
2021/01/30 05:59:48;;;;;;;15.70;11.70;;;3.70;81.20;;;;;;5075199;28;20523;-80
2021/01/30 06:02:34;;;;;;;16.70;11.67;;;3.70;80.90;;;;;;5076101;28;20024;-80
2021/01/30 06:05:17;;;;;;;16.23;12.17;;;3.80;80.60;;;;;;5074872;28;20027;-81
2021/01/30 06:07:43;;;;;;;15.77;11.50;;;3.80;80.80;;;;;;5076230;28;20028;-80
2021/01/30 06:10:29;;;;;;;15.87;11.97;;;3.80;80.40;;;;;;5075545;28;20481;-80
2021/01/30 06:13:19;;;;;;;15.10;11.30;;;3.80;81.20;;;;;;5074550;28;20066;-80
2021/01/30 06:15:48;;;;;;;16.87;11.90;;;3.80;80.80;;;;;;5075873;28;20029;-80
2021/01/30 06:18:28;;;;;;;17.38;11.07;;;3.80;80.70;;;;;;5075602;28;20028;-80
2021/01/30 06:21:04;;;;;;;15.23;11.47;;;3.80;80.60;;;;;;5073645;28;20090;-80
2021/01/30 06:23:30;;;;;;;15.30;11.20;;;3.80;80.30;;;;;;5074453;28;20032;-80
2021/01/30 06:26:19;;;;;;;15.93;11.30;;;3.80;80.20;;;;;;5076001;28;20390;-80
2021/01/30 06:28:48;;;;;;;;;;;3.80;80.40;;;;;;5076363;28;20024;-81
2021/01/30 06:31:39;;;;;;;14.83;10.93;;;3.70;81.10;;;;;;5075412;28;19965;-80
2021/01/30 06:34:30;;;;;;;16.33;11.77;;;3.80;80.10;;;;;;5075892;28;20103;-80
2021/01/30 06:36:57;;;;;;;13.53;10.97;;;3.70;79.30;;;;;;5075715;28;20039;-81
2021/01/30 06:39:34;;;;;;;13.30;10.53;;;3.70;79.80;;;;;;5075359;28;20136;-80
2021/01/30 06:42:07;;;;;;;14.57;10.80;;;3.70;80.80;;;;;;5075730;28;20477;-81
2021/01/30 06:44:34;;;;;;;14.90;10.73;;;3.80;80.00;;;;;;5075904;28;20048;-81
2021/01/30 06:47:20;;;;;;;13.90;10.10;;;3.70;80.10;;;;;;5075683;28;20024;-80
2021/01/30 06:49:54;;;;;;;11.47;9.10;;;3.70;78.80;;;;;;5090836;28;20032;-80
2021/01/30 06:52:22;;;;;;;12.97;9.33;;;3.70;78.40;;;;;;5075731;28;20020;-80
2021/01/30 06:55:06;;;;;;;12.00;9.37;;;3.70;79.10;;;;;;5075591;28;20040;-80
2021/01/30 06:57:37;;;;;;;11.13;8.87;;;3.80;78.80;;;;;;5075501;28;20142;-80
2021/01/30 07:00:15;;;;;;;12.00;8.90;;;3.70;79.00;;;;;;5074505;28;20114;-81
2021/01/30 07:02:47;;;;;;;10.93;8.77;;;3.70;79.10;;;;;;5074853;28;20021;-80
2021/01/30 07:05:22;;;;;;;12.17;9.33;;;3.60;79.20;;;;;;5075023;28;20028;-80
2021/01/30 07:08:13;;;;;;;12.07;8.67;;;3.70;79.20;;;;;;5073912;28;20094;-80
2021/01/30 07:11:05;;;;;;;11.07;8.40;;;3.70;78.90;;;;;;5073062;28;20068;-80
2021/01/30 07:13:40;;;;;;;11.30;8.77;;;3.70;78.20;;;;;;5066457;28;20044;-80
2021/01/30 07:16:21;;;;;;;11.13;9.07;;;3.70;78.10;;;;;;5075239;28;20044;-81
2021/01/30 07:19:14;;;;;;;10.40;8.43;;;3.60;78.20;;;;;;5075038;28;20028;-80
2021/01/30 07:21:45;;;;;;;10.90;8.37;;;3.50;78.40;;;;;;5073864;28;20024;-80
2021/01/30 07:24:25;;;;;;;11.03;8.40;;;3.60;78.80;;;;;;5075301;28;20024;-81
2021/01/30 07:27:15;;;;;;;11.57;8.77;;;3.60;78.90;;;;;;5075533;28;20024;-81
2021/01/30 07:29:59;;;;;;;;;;;3.60;79.10;;;;;;5073721;28;20017;-81
2021/01/30 07:32:33;;;;;;;10.93;8.17;;;3.60;77.90;;;;;;5073805;28;19990;-80
2021/01/30 07:35:10;;;;;;;10.80;8.10;;;3.50;77.60;;;;;;5075328;28;20299;-80
2021/01/30 07:37:47;;;;;;;11.53;8.47;;;3.50;77.50;;;;;;5075310;28;20024;-80
2021/01/30 07:40:21;;;;;;;11.40;8.63;;;3.50;77.30;;;;;;5074528;28;20051;-81
2021/01/30 07:43:10;;;;;;;13.00;8.80;;;3.60;77.40;;;;;;5073593;28;20026;-80
2021/01/30 07:45:41;;;;;;;11.00;8.43;;;3.60;77.30;;;;;;5075137;28;20028;-81
2021/01/30 07:48:12;;;;;;;11.63;8.77;;;3.60;77.70;;;;;;5073751;28;20032;-81
2021/01/30 07:50:42;;;;;;;10.73;8.67;;;3.60;77.90;;;;;;5074141;28;20032;-81
2021/01/30 07:53:22;;;;;;;;;;;3.50;78.20;;;;;;5075301;28;20099;-81
2021/01/30 07:56:10;;;;;;;12.27;9.40;;;3.50;77.50;;;;;;5075328;28;19905;-81
2021/01/30 07:58:50;;;;;;;11.50;8.60;;;3.60;77.00;;;;;;5074678;28;20043;-81
2021/01/30 08:01:37;;;;;;;11.17;8.60;;;3.50;77.20;;;;;;5075064;28;20107;-81
2021/01/30 08:04:21;;;;;;;10.17;7.30;;;3.50;77.80;;;;;;5075373;28;20031;-80
2021/01/30 08:07:18;;;;;;;9.80;7.67;;;3.40;77.30;;;;;;5073098;28;20074;-80
2021/01/30 08:10:05;;;;;;;10.03;7.20;;;3.50;77.50;;;;;;5074106;28;20436;-80
2021/01/30 08:12:52;;;;;;;9.10;7.77;;;3.50;78.20;;;;;;5074556;28;20028;-81
2021/01/30 08:15:35;;;;;;;12.50;8.53;;;3.50;78.10;;;;;;5074463;28;20017;-80
2021/01/30 08:18:12;;;;;;;9.93;7.70;;;3.50;78.10;;;;;;5075179;28;20024;-81
2021/01/30 08:21:00;;;;;;;8.53;6.63;;;3.50;77.90;;;;;;5073192;28;20043;-80
2021/01/30 08:23:47;;;;;;;7.67;6.20;;;3.50;77.20;;;;;;5073471;28;20123;-81
2021/01/30 08:26:28;;;;;;;9.23;6.67;;;3.50;77.00;;;;;;5075516;28;20082;-81
2021/01/30 08:28:59;;;;;;;7.97;5.57;;;3.50;77.00;;;;;;5074656;28;20624;-80
2021/01/30 08:31:33;;;;;;;8.77;5.90;;;3.50;76.70;;;;;;5075090;28;20035;-81
2021/01/30 08:34:17;;;;;;;6.67;5.37;;;3.50;76.60;;;;;;5074445;28;20040;-81
2021/01/30 08:36:55;;;;;;;6.60;5.10;;;3.50;76.00;;;;;;5075018;28;20381;-81
2021/01/30 08:39:35;;;;;;;5.20;4.27;;;3.50;75.90;;;;;;5073952;28;20051;-81
2021/01/30 08:42:18;;;;;;;6.00;4.47;;;3.50;75.40;;;;;;5073785;28;20031;-81
2021/01/30 08:44:50;;;;;;;6.20;4.40;;;3.50;75.40;;;;;;5073334;28;20024;-81
2021/01/30 08:47:21;;;;;;;6.90;4.70;;;3.50;75.10;;;;;;5074514;28;20493;-81
2021/01/30 08:49:57;;;;;;;5.37;4.23;;;3.50;75.60;;;;;;5072857;28;20020;-81
2021/01/30 08:52:33;;;;;;;5.67;4.33;;;3.50;75.00;;;;;;5073531;28;20527;-80
2021/01/30 08:55:23;;;;;;;6.63;4.33;;;3.50;74.50;;;;;;5074524;28;20389;-81
2021/01/30 08:57:49;;;;;;;5.23;4.30;;;3.50;75.20;;;;;;5075074;28;20020;-81
2021/01/30 09:00:27;;;;;;;6.13;4.50;;;3.50;75.40;;;;;;5074577;28;20027;-81
2021/01/30 09:02:55;;;;;;;6.23;4.30;;;3.60;75.00;;;;;;5075172;28;20029;-81
2021/01/30 09:05:20;;;;;;;6.07;4.30;;;3.60;74.50;;;;;;5075007;28;20075;-81
2021/01/30 09:07:51;;;;;;;6.47;3.90;;;3.60;74.30;;;;;;5075180;28;20690;-81
2021/01/30 09:10:22;;;;;;;6.00;4.00;;;3.60;73.90;;;;;;5074408;28;20504;-81
2021/01/30 09:12:57;;;;;;;5.87;4.17;;;3.70;74.60;;;;;;5073415;28;20106;-80
2021/01/30 09:15:38;;;;;;;5.27;4.07;;;3.60;74.10;;;;;;5073072;28;20094;-80
2021/01/30 09:18:13;;;;;;;6.50;4.60;;;3.70;74.20;;;;;;5072907;28;20058;-80
2021/01/30 09:20:55;;;;;;;5.20;4.10;;;3.70;74.60;;;;;;5070858;28;20020;-80
2021/01/30 09:23:49;;;;;;;6.00;4.30;;;3.70;74.40;;;;;;5071914;28;20027;-80
2021/01/30 09:26:48;;;;;;;6.20;4.40;;;3.80;74.80;;;;;;5072981;28;20020;-81
2021/01/30 09:29:25;;;;;;;7.38;4.28;;;3.70;74.50;;;;;;5071621;28;20024;-80
2021/01/30 09:31:58;;;;;;;5.97;4.20;;;3.70;73.80;;;;;;5072675;28;20287;-80
2021/01/30 09:34:30;;;;;;;6.47;4.17;;;3.60;74.40;;;;;;5072970;28;20021;-80
2021/01/30 09:36:56;;;;;;;6.73;4.50;;;3.60;74.70;;;;;;5072724;28;20027;-80
2021/01/30 09:39:28;;;;;;;7.23;4.80;;;3.60;74.60;;;;;;5071918;28;20473;-80
2021/01/30 09:42:09;;;;;;;5.77;4.37;;;3.60;74.90;;;;;;5072929;28;20029;-81
2021/01/30 09:44:35;;;;;;;6.43;4.40;;;3.60;75.10;;;;;;5072696;28;20028;-80
2021/01/30 09:47:06;;;;;;;7.23;4.73;;;3.60;75.30;;;;;;5072798;28;20020;-80
2021/01/30 09:49:41;;;;;;;6.33;4.97;;;3.60;74.70;;;;;;5070966;28;20021;-80
2021/01/30 09:52:07;;;;;;;7.07;4.63;;;3.60;74.60;;;;;;5073100;28;20040;-80
2021/01/30 09:54:33;;;;;;;6.77;5.10;;;3.60;75.40;;;;;;5073058;28;20473;-80
2021/01/30 09:57:08;;;;;;;6.77;5.27;;;3.60;75.30;;;;;;5072468;28;20557;-81
2021/01/30 09:59:34;;;;;;;8.67;5.47;;;3.60;75.70;;;;;;5072104;28;20024;-80
2021/01/30 10:02:15;;;;;;;7.83;5.10;;;3.60;76.00;;;;;;5072598;28;20021;-80
2021/01/30 10:04:41;;;;;;;8.60;5.30;;;3.60;75.80;;;;;;5072767;28;20042;-80
2021/01/30 10:07:10;;;;;;;7.70;5.40;;;3.60;76.40;;;;;;5072612;28;20024;-80
2021/01/30 10:09:44;;;;;;;7.60;5.00;;;3.70;76.20;;;;;;5071858;28;20040;-80
2021/01/30 10:12:11;;;;;;;8.37;5.50;;;3.70;76.20;;;;;;5071127;28;20033;-80
2021/01/30 10:14:40;;;;;;;7.07;5.03;;;3.70;75.90;;;;;;5072479;28;20021;-80
2021/01/30 10:17:19;;;;;;;8.05;5.53;;;3.60;76.20;;;;;;5072408;28;20127;-81
2021/01/30 10:19:45;;;;;;;8.25;5.03;;;3.70;76.40;;;;;;5072153;28;20094;-80
2021/01/30 10:22:20;;;;;;;6.93;5.00;;;3.70;75.90;;;;;;5072330;28;20033;-81
2021/01/30 10:24:49;;;;;;;8.73;5.70;;;3.70;75.20;;;;;;5072340;28;20090;-80
2021/01/30 10:27:25;;;;;;;8.57;5.13;;;3.70;76.30;;;;;;5072612;28;20135;-81
2021/01/30 10:29:52;;;;;;;6.90;4.83;;;3.80;76.50;;;;;;5072122;28;20028;-80
2021/01/30 10:32:22;;;;;;;8.17;5.00;;;3.80;75.30;;;;;;5072287;28;20473;-80
2021/01/30 10:34:57;;;;;;;6.77;4.60;;;3.80;75.30;;;;;;5070856;28;20441;-80
2021/01/30 10:37:43;;;;;;;7.27;4.70;;;3.70;75.60;;;;;;5073259;28;20500;-80
2021/01/30 10:40:32;;;;;;;8.00;4.67;;;3.80;75.70;;;;;;5073843;28;20472;-80
2021/01/30 10:43:05;;;;;;;6.57;4.47;;;3.80;75.20;;;;;;5075574;28;20016;-82
2021/01/30 10:45:33;;;;;;;8.03;4.63;;;3.90;75.60;;;;;;5075339;28;20408;-81
2021/01/30 10:48:11;;;;;;;8.33;5.27;;;3.90;75.30;;;;;;5075237;28;20024;-80
2021/01/30 10:50:43;;;;;;;7.20;4.60;;;3.90;75.60;;;;;;5075120;28;20422;-80
2021/01/30 10:53:35;;;;;;;7.37;4.47;;;3.90;75.40;;;;;;5074001;28;20616;-80
2021/01/30 10:56:14;;;;;;;6.40;4.43;;;3.90;74.80;;;;;;5075344;28;20028;-80
2021/01/30 10:58:40;;;;;;;6.30;4.03;;;3.90;74.10;;;;;;5075594;28;20066;-81
2021/01/30 11:01:10;;;;;;;7.17;4.00;;;3.90;74.50;;;;;;5074820;28;20082;-81
2021/01/30 11:03:53;;;;;;;4.93;3.93;;;3.90;74.80;;;;;;5075762;28;20025;-80
2021/01/30 11:06:35;;;;;;;5.60;3.70;;;3.90;74.80;;;;;;5075102;28;20540;-80
2021/01/30 11:09:17;;;;;;;6.27;3.47;;;3.90;74.00;;;;;;5074889;28;20099;-80
2021/01/30 11:11:45;;;;;;;8.00;4.50;;;3.90;74.00;;;;;;5075162;28;20036;-80
2021/01/30 11:14:31;;;;;;;8.10;3.10;;;3.90;74.40;;;;;;5075288;28;20025;-80
2021/01/30 11:16:59;;;;;;;5.87;3.20;;;4.00;74.60;;;;;;5075355;28;20081;-80
2021/01/30 11:19:27;;;;;;;5.70;3.20;;;4.00;73.70;;;;;;5074949;28;20020;-81
2021/01/30 11:22:20;;;;;;;9.20;3.17;;;3.90;72.90;;;;;;5075401;28;20091;-80
2021/01/30 11:25:12;;;;;;;6.53;3.10;;;4.00;73.00;;;;;;5075540;28;20025;-80
2021/01/30 11:27:45;;;;;;;5.77;3.00;;;4.00;73.30;;;;;;5064849;28;20047;-80
2021/01/30 11:30:24;;;;;;;4.33;3.00;;;4.00;73.40;;;;;;5074634;28;20028;-80
2021/01/30 11:33:01;;;;;;;4.25;2.90;;;4.00;72.30;;;;;;5078642;28;20024;-81
2021/01/30 11:35:33;;;;;;;6.63;2.90;;;4.00;72.40;;;;;;5075340;28;20035;-81
2021/01/30 11:38:06;;;;;;;4.40;2.63;;;4.00;73.10;;;;;;5076103;28;20469;-81
2021/01/30 11:40:32;;;;;;;4.30;2.87;;;4.00;72.80;;;;;;5076399;28;20091;-82
2021/01/30 11:42:58;;;;;;;4.10;3.00;;;4.00;73.30;;;;;;5076690;28;20028;-81
2021/01/30 11:45:23;;;;;;;5.60;2.93;;;4.00;73.70;;;;;;5076691;28;20027;-81
2021/01/30 11:47:49;;;;;;;4.60;2.80;;;4.10;73.80;;;;;;5074669;28;20024;-82
2021/01/30 11:50:15;;;;;;;4.47;2.53;;;4.10;73.70;;;;;;5075759;28;20032;-82
2021/01/30 11:52:40;;;;;;;3.53;2.23;;;4.10;73.70;;;;;;5074869;28;20024;-81
2021/01/30 11:55:07;;;;;;;3.43;2.43;;;4.10;73.00;;;;;;5076609;28;20028;-82
2021/01/30 11:57:32;;;;;;;4.60;2.40;;;4.10;72.50;;;;;;5076159;28;20033;-81
2021/01/30 11:59:58;;;;;;;4.90;2.20;;;4.20;71.80;;;;;;5075127;28;20040;-81
2021/01/30 12:02:30;;;;;;;3.13;1.90;;;4.20;71.50;;;;;;5075649;28;20078;-82
2021/01/30 12:04:56;;;;;;;3.27;1.97;;;4.10;71.70;;;;;;5074931;28;20427;-82
2021/01/30 12:07:22;;;;;;;2.70;1.60;;;4.10;72.40;;;;;;5075952;28;20032;-82
2021/01/30 12:09:48;;;;;;;2.67;1.73;;;4.10;71.40;;;;;;5074920;28;20028;-82
2021/01/30 12:12:13;;;;;;;4.87;1.70;;;4.10;72.00;;;;;;5075909;28;20056;-81
2021/01/30 12:14:39;;;;;;;3.90;1.83;;;4.20;72.10;;;;;;5075897;28;20540;-82
2021/01/30 12:17:04;;;;;;;4.03;1.90;;;4.20;72.00;;;;;;5076081;28;20030;-82
2021/01/30 12:19:30;;;;;;;3.37;1.70;;;4.20;71.80;;;;;;5075285;28;20025;-81
2021/01/30 12:21:56;;;;;;;3.40;1.70;;;4.20;71.80;;;;;;5075622;28;20522;-82
2021/01/30 12:24:22;;;;;;;2.33;1.63;;;4.20;71.60;;;;;;5075557;28;20447;-82
2021/01/30 12:26:48;;;;;;;2.73;1.70;;;4.20;71.30;;;;;;5076106;28;20013;-82
2021/01/30 12:29:13;;;;;;;4.07;1.73;;;4.30;71.20;;;;;;5075314;28;20385;-82
2021/01/30 12:31:39;;;;;;;3.37;1.70;;;4.30;71.60;;;;;;5075914;28;20024;-81
2021/01/30 12:34:04;;;;;;;3.00;1.83;;;4.30;71.20;;;;;;5074675;28;20024;-82
2021/01/30 12:36:30;;;;;;;3.10;1.63;;;4.30;71.00;;;;;;5076034;28;20020;-82
2021/01/30 12:38:55;;;;;;;3.73;1.80;;;4.30;70.70;;;;;;5074337;28;20048;-82
2021/01/30 12:41:21;;;;;;;2.77;1.60;;;4.30;70.40;;;;;;5076871;28;20409;-81
2021/01/30 12:43:47;;;;;;;5.17;1.70;;;4.40;71.00;;;;;;5076302;28;20021;-81
2021/01/30 12:46:13;;;;;;;3.47;2.00;;;4.40;71.20;;;;;;5075503;28;20016;-82
2021/01/30 12:48:39;;;;;;;6.87;1.80;;;4.50;70.90;;;;;;5074932;28;20028;-82
2021/01/30 12:51:05;;;;;;;3.37;1.63;;;4.50;71.30;;;;;;5074543;28;20131;-81
2021/01/30 12:53:31;;;;;;;3.50;1.93;;;4.50;70.50;;;;;;5075836;28;20035;-82
2021/01/30 12:55:57;;;;;;;3.43;2.00;;;4.50;70.00;;;;;;5075530;28;20020;-82
2021/01/30 12:58:28;;;;;;;2.77;1.63;;;4.50;69.80;;;;;;5075383;28;20385;-82
2021/01/30 13:00:55;;;;;;;2.83;1.70;;;4.50;70.60;;;;;;5080260;28;20028;-82
2021/01/30 13:03:23;;;;;;;4.03;1.40;;;4.60;70.10;;;;;;5080651;28;20034;-82
2021/01/30 13:05:50;;;;;;;2.67;1.47;;;4.60;70.10;;;;;;5085167;28;20020;-81
2021/01/30 13:08:17;;;;;;;3.30;1.50;;;4.50;69.80;;;;;;5084299;28;20024;-82
2021/01/30 13:10:43;;;;;;;4.77;1.57;;;4.50;69.80;;;;;;5077064;28;20097;-82
2021/01/30 13:13:09;;;;;;;4.07;2.20;;;4.50;70.50;;;;;;5075725;28;20024;-82
2021/01/30 13:15:34;;;;;;;2.60;1.53;;;4.50;68.60;;;;;;5075648;28;20442;-82
2021/01/30 13:18:00;;;;;;;3.43;1.60;;;4.40;68.40;;;;;;5075562;28;20436;-82